createdAt,value
2018-04-02T00:00:57.697Z,7.80
2018-04-02T00:03:25.973Z,7.80
2018-04-02T00:05:54.220Z,7.80
2018-04-02T00:08:23.281Z,7.60
2018-04-02T00:10:51.618Z,7.60
2018-04-02T00:13:19.949Z,7.70
2018-04-02T00:15:48.244Z,7.70
2018-04-02T00:18:17.275Z,7.70
2018-04-02T00:20:45.552Z,7.60
2018-04-02T00:23:13.812Z,7.80
2018-04-02T00:25:42.121Z,7.80
2018-04-02T00:28:10.403Z,7.80
2018-04-02T00:30:38.721Z,7.70
2018-04-02T00:33:06.985Z,7.70
2018-04-02T00:35:35.272Z,7.50
2018-04-02T00:38:03.517Z,7.50
2018-04-02T00:40:31.768Z,7.50
2018-04-02T00:43:00.043Z,7.50
2018-04-02T00:45:28.319Z,7.50
2018-04-02T00:47:56.585Z,7.50
2018-04-02T00:50:24.858Z,7.60
2018-04-02T00:52:53.125Z,7.60
2018-04-02T00:55:21.373Z,7.50
2018-04-02T00:57:49.653Z,7.50
2018-04-02T01:00:17.896Z,7.50
2018-04-02T01:02:46.159Z,7.40
2018-04-02T01:05:14.424Z,7.40
2018-04-02T01:07:42.713Z,7.40
2018-04-02T01:10:10.972Z,7.40
2018-04-02T01:12:39.241Z,7.30
2018-04-02T01:15:07.484Z,7.30
2018-04-02T01:17:36.503Z,7.20
2018-04-02T01:20:04.761Z,7.20
2018-04-02T01:22:33.764Z,7.20
2018-04-02T01:25:02.022Z,7.20
2018-04-02T01:27:31.082Z,7.10
2018-04-02T01:29:59.331Z,7.10
2018-04-02T01:32:27.593Z,7.10
2018-04-02T01:34:55.849Z,7.20
2018-04-02T01:37:24.876Z,7.20
2018-04-02T01:39:53.125Z,7.20
2018-04-02T01:42:22.144Z,7.10
2018-04-02T01:44:50.393Z,7.10
2018-04-02T01:47:19.436Z,7.10
2018-04-02T01:49:47.704Z,7.10
2018-04-02T01:52:15.955Z,7.10
2018-04-02T01:54:44.197Z,7.10
2018-04-02T01:57:12.472Z,7.10
2018-04-02T01:59:40.731Z,7.00
2018-04-02T02:02:08.989Z,7.10
2018-04-02T02:04:37.243Z,7.20
2018-04-02T02:07:05.487Z,7.10
2018-04-02T02:09:34.508Z,7.10
2018-04-02T02:12:02.740Z,7.00
2018-04-02T02:14:30.991Z,7.10
2018-04-02T02:17:00.006Z,7.10
2018-04-02T02:19:28.252Z,7.10
2018-04-02T02:21:56.495Z,7.10
2018-04-02T02:24:24.759Z,7.00
2018-04-02T02:26:53.797Z,6.90
2018-04-02T02:29:22.059Z,6.90
2018-04-02T02:31:50.330Z,6.80
2018-04-02T02:34:18.581Z,6.80
2018-04-02T02:36:47.599Z,6.60
2018-04-02T02:39:15.873Z,6.60
2018-04-02T02:41:44.119Z,6.70
2018-04-02T02:44:13.186Z,6.30
2018-04-02T02:46:41.429Z,6.30
2018-04-02T02:49:09.690Z,6.50
2018-04-02T02:51:37.941Z,6.60
2018-04-02T02:54:06.958Z,6.60
2018-04-02T02:56:35.202Z,6.60
2018-04-02T02:59:04.273Z,6.50
2018-04-02T03:01:32.646Z,6.50
2018-04-02T03:04:00.887Z,6.40
2018-04-02T03:06:29.152Z,6.50
2018-04-02T03:08:57.416Z,6.50
2018-04-02T03:11:25.653Z,6.50
2018-04-02T03:13:53.904Z,6.50
2018-04-02T03:16:22.154Z,6.50
2018-04-02T03:18:50.420Z,6.50
2018-04-02T03:21:19.430Z,6.50
2018-04-02T03:23:47.743Z,6.50
2018-04-02T03:26:15.979Z,6.50
2018-04-02T03:28:44.241Z,6.20
2018-04-02T03:31:13.248Z,6.00
2018-04-02T03:33:41.499Z,6.00
2018-04-02T03:36:10.528Z,6.10
2018-04-02T03:38:38.764Z,6.10
2018-04-02T03:41:07.779Z,6.10
2018-04-02T03:43:36.051Z,6.10
2018-04-02T03:46:04.384Z,6.10
2018-04-02T03:48:32.620Z,6.10
2018-04-02T03:51:00.861Z,6.20
2018-04-02T03:53:29.143Z,6.10
2018-04-02T03:55:58.157Z,6.10
2018-04-02T03:58:26.430Z,6.10
2018-04-02T04:00:54.686Z,6.20
2018-04-02T04:03:23.700Z,6.10
2018-04-02T04:05:52.717Z,6.10
2018-04-02T04:08:20.970Z,6.10
2018-04-02T04:10:49.216Z,6.10
2018-04-02T04:13:17.464Z,6.00
2018-04-02T04:15:46.480Z,5.90
2018-04-02T04:18:14.717Z,5.90
2018-04-02T04:20:42.967Z,6.00
2018-04-02T04:23:11.220Z,6.10
2018-04-02T04:25:40.219Z,5.90
2018-04-02T04:28:08.480Z,5.90
2018-04-02T04:30:37.509Z,5.80
2018-04-02T04:33:05.772Z,5.80
2018-04-02T04:35:34.020Z,5.80
2018-04-02T04:38:02.271Z,5.80
2018-04-02T04:40:30.574Z,5.80
2018-04-02T04:42:58.784Z,5.80
2018-04-02T04:45:27.045Z,5.80
2018-04-02T04:53:42.501Z,5.70
2018-04-02T04:56:10.759Z,5.50
2018-04-02T04:58:39.029Z,5.50
2018-04-02T05:01:08.034Z,5.50
2018-04-02T05:03:36.288Z,5.40
2018-04-02T05:06:05.282Z,5.50
2018-04-02T05:08:34.293Z,5.50
2018-04-02T05:11:02.551Z,5.50
2018-04-02T05:13:30.789Z,5.40
2018-04-02T05:15:59.050Z,5.60
2018-04-02T05:18:27.310Z,5.80
2018-04-02T05:20:55.616Z,6.00
2018-04-02T05:23:23.859Z,5.90
2018-04-02T05:25:52.117Z,5.60
2018-04-02T05:28:20.377Z,5.60
2018-04-02T05:30:48.636Z,5.60
2018-04-02T05:33:16.872Z,5.50
2018-04-02T05:35:45.144Z,5.60
2018-04-02T05:38:13.393Z,5.60
2018-04-02T05:40:41.665Z,5.70
2018-04-02T05:43:10.696Z,5.70
2018-04-02T05:45:38.943Z,5.70
2018-04-02T05:48:07.196Z,5.80
2018-04-02T05:50:35.427Z,5.80
2018-04-02T05:53:03.684Z,5.90
2018-04-02T05:55:31.936Z,5.60
2018-04-02T05:58:00.960Z,6.10
2018-04-02T06:00:29.208Z,6.00
2018-04-02T06:02:57.480Z,6.20
2018-04-02T06:05:26.500Z,6.40
2018-04-02T06:07:54.765Z,6.30
2018-04-02T06:10:23.027Z,6.30
2018-04-02T06:12:52.051Z,6.10
2018-04-02T06:15:20.313Z,6.10
2018-04-02T06:17:48.618Z,5.90
2018-04-02T06:20:16.875Z,6.10
2018-04-02T06:22:45.131Z,6.20
2018-04-02T06:25:13.405Z,6.40
2018-04-02T06:27:41.653Z,6.50
2018-04-02T06:30:09.927Z,6.50
2018-04-02T06:32:38.169Z,6.50
2018-04-02T06:35:06.438Z,6.50
2018-04-02T06:37:34.716Z,6.50
2018-04-02T06:40:02.971Z,6.60
2018-04-02T06:42:31.238Z,6.70
2018-04-02T06:45:00.264Z,6.50
2018-04-02T06:47:28.537Z,6.50
2018-04-02T06:49:56.791Z,6.40
2018-04-02T06:52:25.056Z,6.40
2018-04-02T06:54:54.072Z,6.50
2018-04-02T06:57:22.333Z,6.50
2018-04-02T06:59:50.588Z,6.60
2018-04-02T07:02:20.405Z,6.90
2018-04-02T07:04:49.402Z,6.80
2018-04-02T07:07:18.472Z,7.00
2018-04-02T07:09:46.861Z,7.10
2018-04-02T07:12:15.899Z,7.20
2018-04-02T07:14:44.166Z,7.20
2018-04-02T07:17:12.450Z,7.30
2018-04-02T07:19:40.700Z,7.50
2018-04-02T07:22:08.996Z,7.80
2018-04-02T07:24:37.272Z,8.10
2018-04-02T07:27:05.535Z,8.40
2018-04-02T07:29:33.828Z,8.50
2018-04-02T07:32:02.073Z,8.50
2018-04-02T07:34:31.098Z,8.30
2018-04-02T07:36:59.352Z,8.30
2018-04-02T07:39:27.598Z,8.30
2018-04-02T07:41:55.871Z,8.30
2018-04-02T07:44:24.166Z,8.30
2018-04-02T07:46:52.393Z,8.40
2018-04-02T07:49:20.719Z,8.50
2018-04-02T07:51:48.945Z,8.60
2018-04-02T07:54:17.198Z,8.70
2018-04-02T07:56:45.452Z,8.80
2018-04-02T07:59:14.494Z,9.00
2018-04-02T08:01:42.733Z,9.00
2018-04-02T08:04:11.012Z,9.20
2018-04-02T08:06:39.300Z,9.30
2018-04-02T08:09:07.551Z,9.70
2018-04-02T08:11:36.591Z,15.40
2018-04-02T08:14:04.860Z,15.40
2018-04-02T08:16:33.116Z,18.20
2018-04-02T08:19:01.384Z,19.50
2018-04-02T08:21:29.659Z,19.40
2018-04-02T08:23:57.954Z,17.80
2018-04-02T08:26:26.211Z,16.00
2018-04-02T08:28:54.495Z,14.80
2018-04-02T08:31:22.771Z,14.00
2018-04-02T08:33:51.036Z,13.30
2018-04-02T08:36:19.308Z,12.80
2018-04-02T08:38:47.605Z,12.60
2018-04-02T08:41:15.820Z,12.30
2018-04-02T08:43:44.102Z,12.00
2018-04-02T08:46:12.374Z,11.70
2018-04-02T08:48:40.655Z,11.70
2018-04-02T08:51:08.934Z,12.00
2018-04-02T08:53:37.220Z,12.40
2018-04-02T08:56:05.937Z,12.60
2018-04-02T08:58:34.957Z,13.00
2018-04-02T09:01:03.212Z,13.00
2018-04-02T09:03:32.173Z,13.10
2018-04-02T09:06:01.291Z,13.30
2018-04-02T09:08:31.317Z,13.40
2018-04-02T09:11:00.392Z,13.40
2018-04-02T09:13:28.705Z,13.40
2018-04-02T09:15:56.976Z,13.30
2018-04-02T09:18:25.284Z,13.10
2018-04-02T09:20:53.979Z,13.10
2018-04-02T09:23:22.239Z,13.20
2018-04-02T09:25:50.505Z,13.30
2018-04-02T09:28:18.752Z,13.40
2018-04-02T09:30:47.048Z,13.40
2018-04-02T09:33:15.304Z,13.40
2018-04-02T09:35:43.576Z,13.30
2018-04-02T09:38:11.887Z,13.50
2018-04-02T09:40:40.144Z,13.30
2018-04-02T09:43:08.437Z,13.30
2018-04-02T09:45:36.696Z,13.30
2018-04-02T09:48:04.998Z,13.40
2018-04-02T09:50:33.251Z,13.30
2018-04-02T09:53:01.520Z,13.50
2018-04-02T09:55:29.770Z,13.50
2018-04-02T09:57:58.076Z,13.40
2018-04-02T10:00:32.031Z,13.40
2018-04-02T10:03:01.296Z,13.50
2018-04-02T10:05:31.283Z,13.60
2018-04-02T10:08:00.411Z,13.70
2018-04-02T10:10:28.759Z,13.70
2018-04-02T10:12:56.942Z,13.70
2018-04-02T10:15:25.250Z,13.70
2018-04-02T10:17:53.494Z,13.90
2018-04-02T10:20:21.780Z,13.90
2018-04-02T10:22:50.555Z,14.00
2018-04-02T10:25:18.813Z,13.90
2018-04-02T10:27:47.860Z,14.30
2018-04-02T10:30:16.135Z,14.30
2018-04-02T10:32:44.411Z,14.40
2018-04-02T10:35:12.673Z,14.50
2018-04-02T10:37:40.956Z,14.60
2018-04-02T10:40:09.215Z,14.90
2018-04-02T10:42:37.475Z,14.80
2018-04-02T10:45:06.505Z,14.90
2018-04-02T10:47:34.781Z,14.90
2018-04-02T10:50:03.047Z,15.10
2018-04-02T10:52:31.329Z,15.10
2018-04-02T10:54:59.573Z,15.00
2018-04-02T10:57:27.884Z,15.00
2018-04-02T10:59:56.165Z,14.90
2018-04-02T11:02:25.065Z,14.90
2018-04-02T11:04:52.744Z,14.90
2018-04-02T11:07:21.017Z,14.90
2018-04-02T11:09:49.284Z,14.90
2018-04-02T11:12:17.569Z,14.90
2018-04-02T11:14:45.916Z,14.90
2018-04-02T11:17:14.160Z,14.90
2018-04-02T11:19:42.441Z,15.10
2018-04-02T11:22:10.691Z,15.30
2018-04-02T11:24:39.001Z,15.30
2018-04-02T11:27:07.293Z,15.30
2018-04-02T11:29:35.579Z,15.30
2018-04-02T11:32:03.834Z,15.20
2018-04-02T11:34:32.594Z,14.90
2018-04-02T11:37:00.859Z,14.90
2018-04-02T11:39:29.114Z,15.00
2018-04-02T11:41:57.375Z,14.90
2018-04-02T11:44:25.658Z,15.00
2018-04-02T11:46:53.916Z,14.90
2018-04-02T11:49:22.178Z,15.00
2018-04-02T11:51:50.436Z,15.10
2018-04-02T11:54:19.454Z,15.50
2018-04-02T11:56:47.735Z,15.50
2018-04-02T11:59:15.981Z,15.40
2018-04-02T12:01:45.016Z,15.30
2018-04-02T12:04:13.285Z,15.20
2018-04-02T12:06:41.655Z,15.30
2018-04-02T12:09:09.911Z,15.50
2018-04-02T12:11:38.940Z,15.70
2018-04-02T12:14:07.201Z,15.70
2018-04-02T12:16:35.467Z,15.80
2018-04-02T12:19:03.751Z,15.70
2018-04-02T12:21:32.068Z,15.70
2018-04-02T12:24:00.325Z,15.80
2018-04-02T12:26:28.603Z,15.90
2018-04-02T12:28:56.872Z,16.00
2018-04-02T12:31:25.164Z,15.90
2018-04-02T12:33:53.448Z,16.00
2018-04-02T12:36:21.701Z,16.10
2018-04-02T12:38:49.976Z,16.10
2018-04-02T12:41:18.231Z,16.20
2018-04-02T12:43:46.508Z,16.20
2018-04-02T12:46:14.768Z,16.30
2018-04-02T12:48:43.044Z,16.30
2018-04-02T12:51:11.307Z,16.50
2018-04-02T12:53:40.409Z,16.40
2018-04-02T12:56:08.705Z,16.40
2018-04-02T12:58:37.720Z,16.60
2018-04-02T13:01:05.977Z,16.60
2018-04-02T13:03:34.244Z,16.80
2018-04-02T13:06:03.268Z,17.00
2018-04-02T13:08:31.510Z,17.00
2018-04-02T13:10:59.810Z,17.10
2018-04-02T13:13:28.075Z,17.20
2018-04-02T13:15:56.339Z,17.30
2018-04-02T13:18:25.338Z,17.50
2018-04-02T13:20:53.619Z,17.50
2018-04-02T13:23:21.889Z,17.60
2018-04-02T13:25:50.161Z,17.50
2018-04-02T13:28:18.430Z,17.50
2018-04-02T13:30:46.680Z,17.50
2018-04-02T13:33:14.984Z,17.30
2018-04-02T13:35:44.015Z,16.90
2018-04-02T13:38:12.270Z,16.90
2018-04-02T13:40:40.524Z,16.90
2018-04-02T13:43:08.797Z,16.90
2018-04-02T13:45:37.052Z,17.00
2018-04-02T13:48:05.347Z,17.30
2018-04-02T13:50:33.612Z,17.30
2018-04-02T13:53:01.880Z,17.40
2018-04-02T13:55:30.168Z,17.40
2018-04-02T13:57:58.437Z,17.40
2018-04-02T14:00:27.471Z,17.10
2018-04-02T14:02:55.733Z,17.10
2018-04-02T14:05:24.777Z,17.10
2018-04-02T14:07:53.016Z,17.10
2018-04-02T14:10:21.287Z,17.10
2018-04-02T14:12:49.531Z,17.10
2018-04-02T14:15:17.821Z,17.00
2018-04-02T14:17:46.863Z,16.80
2018-04-02T14:20:15.120Z,16.70
2018-04-02T14:22:44.156Z,16.60
2018-04-02T14:25:12.418Z,16.60
2018-04-02T14:27:40.680Z,16.60
2018-04-02T14:30:08.939Z,16.70
2018-04-02T14:32:37.211Z,17.00
2018-04-02T14:35:05.541Z,17.20
2018-04-02T14:37:33.795Z,17.40
2018-04-02T14:40:02.063Z,17.40
2018-04-02T14:42:30.338Z,17.40
2018-04-02T14:44:58.605Z,17.40
2018-04-02T14:47:26.888Z,17.40
2018-04-02T14:49:55.132Z,17.50
2018-04-02T14:52:24.143Z,17.60
2018-04-02T14:54:52.416Z,17.60
2018-04-02T14:57:20.669Z,17.70
2018-04-02T14:59:49.714Z,17.60
2018-04-02T15:02:17.976Z,17.60
2018-04-02T15:04:46.226Z,17.40
2018-04-02T15:07:15.256Z,17.10
2018-04-02T15:09:43.551Z,17.10
2018-04-02T15:12:11.791Z,17.20
2018-04-02T15:14:40.073Z,17.30
2018-04-02T15:17:08.336Z,17.40
2018-04-02T15:19:36.625Z,17.40
2018-04-02T15:22:04.879Z,17.40
2018-04-02T15:24:33.916Z,17.20
2018-04-02T15:30:03.524Z,17.10
2018-04-02T15:32:31.758Z,17.10
2018-04-02T15:35:00.790Z,17.00
2018-04-02T15:37:29.105Z,17.00
2018-04-02T15:39:57.352Z,17.10
2018-04-02T15:42:25.593Z,17.10
2018-04-02T15:44:54.700Z,17.10
2018-04-02T15:47:23.701Z,17.10
2018-04-02T15:49:52.041Z,17.10
2018-04-02T15:52:20.280Z,17.10
2018-04-02T15:54:48.558Z,17.20
2018-04-02T15:57:16.821Z,17.20
2018-04-02T15:59:45.165Z,17.20
2018-04-02T16:02:13.442Z,17.20
2018-04-02T16:04:42.492Z,17.10
2018-04-02T16:07:10.751Z,17.10
2018-04-02T16:09:39.001Z,17.10
2018-04-02T16:12:07.279Z,17.00
2018-04-02T16:14:36.282Z,16.90
2018-04-02T16:17:04.558Z,16.90
2018-04-02T16:19:32.795Z,16.90
2018-04-02T16:22:01.834Z,16.90
2018-04-02T16:24:30.103Z,16.90
2018-04-02T16:26:58.376Z,16.80
2018-04-02T16:29:26.637Z,16.80
2018-04-02T16:31:54.912Z,16.80
2018-04-02T16:34:23.933Z,16.80
2018-04-02T16:36:52.242Z,16.80
2018-04-02T16:39:20.528Z,16.80
2018-04-02T16:41:48.783Z,16.70
2018-04-02T16:44:17.474Z,16.70
2018-04-02T16:46:45.707Z,16.70
2018-04-02T16:49:13.985Z,16.70
2018-04-02T16:51:42.239Z,16.70
2018-04-02T16:54:11.265Z,16.60
2018-04-02T16:56:39.566Z,16.60
2018-04-02T16:59:07.810Z,16.60
2018-04-02T17:01:36.076Z,16.60
2018-04-02T17:04:04.372Z,16.60
2018-04-02T17:06:32.627Z,16.50
2018-04-02T17:09:00.890Z,16.50
2018-04-02T17:11:29.922Z,16.40
2018-04-02T17:13:58.195Z,16.40
2018-04-02T17:16:26.455Z,16.40
2018-04-02T17:18:54.745Z,16.40
2018-04-02T17:21:22.992Z,16.40
2018-04-02T17:23:52.032Z,16.30
2018-04-02T17:26:20.291Z,16.30
2018-04-02T17:28:48.564Z,16.30
2018-04-02T17:31:16.832Z,16.20
2018-04-02T17:33:45.120Z,16.30
2018-04-02T17:36:13.396Z,16.20
2018-04-02T17:38:41.755Z,16.10
2018-04-02T17:41:10.768Z,16.00
2018-04-02T17:43:39.032Z,16.00
2018-04-02T17:46:07.287Z,15.90
2018-04-02T17:48:36.379Z,15.90
2018-04-02T17:51:04.616Z,15.90
2018-04-02T17:53:32.909Z,15.90
2018-04-02T17:56:01.209Z,15.80
2018-04-02T17:58:29.442Z,15.80
2018-04-02T18:00:57.715Z,15.80
2018-04-02T18:03:26.013Z,15.70
2018-04-02T18:05:54.283Z,15.70
2018-04-02T18:08:22.522Z,15.60
2018-04-02T18:10:50.792Z,15.60
2018-04-02T18:13:19.047Z,15.60
2018-04-02T18:15:48.071Z,15.40
2018-04-02T18:18:16.322Z,15.40
2018-04-02T18:20:44.609Z,15.40
2018-04-02T18:23:12.865Z,15.40
2018-04-02T18:25:41.891Z,15.30
2018-04-02T18:28:10.204Z,15.30
2018-04-02T18:30:38.531Z,15.30
2018-04-02T18:33:06.749Z,15.30
2018-04-02T18:35:35.016Z,15.30
2018-04-02T18:38:03.266Z,15.30
2018-04-02T18:40:31.530Z,15.20
2018-04-02T18:42:59.812Z,15.20
2018-04-02T18:45:28.080Z,15.10
2018-04-02T18:47:56.370Z,15.20
2018-04-02T18:50:25.443Z,15.00
2018-04-02T18:52:54.514Z,15.00
2018-04-02T18:55:22.779Z,14.90
2018-04-02T18:57:51.050Z,14.90
2018-04-02T19:00:19.339Z,14.80
2018-04-02T19:02:47.619Z,14.80
2018-04-02T19:05:15.873Z,14.80
2018-04-02T19:07:44.140Z,14.80
2018-04-02T19:10:12.400Z,14.80
2018-04-02T19:12:40.675Z,14.70
2018-04-02T19:15:08.960Z,14.70
2018-04-02T19:17:37.212Z,14.60
2018-04-02T19:20:05.778Z,14.50
2018-04-02T19:22:34.032Z,14.60
2018-04-02T19:25:02.292Z,14.50
2018-04-02T19:27:30.574Z,14.50
2018-04-02T19:29:58.848Z,14.50
2018-04-02T19:32:27.146Z,14.50
2018-04-02T19:34:55.395Z,14.50
2018-04-02T19:37:23.870Z,14.50
2018-04-02T19:39:52.153Z,14.50
2018-04-02T19:42:20.413Z,14.50
2018-04-02T19:44:48.679Z,14.50
2018-04-02T19:47:16.970Z,14.50
2018-04-02T19:49:45.243Z,14.50
2018-04-02T19:52:13.552Z,14.50
2018-04-02T19:54:41.807Z,14.60
2018-04-02T19:57:10.106Z,14.60
2018-04-02T19:59:38.375Z,14.60
2018-04-02T20:02:06.651Z,14.60
2018-04-02T20:04:34.986Z,14.60
2018-04-02T20:07:03.300Z,14.50
2018-04-02T20:09:31.555Z,14.60
2018-04-02T20:11:59.945Z,14.60
2018-04-02T20:14:28.237Z,14.60
2018-04-02T20:16:56.500Z,14.50
2018-04-02T20:19:24.849Z,14.50
2018-04-02T20:21:53.120Z,14.50
2018-04-02T20:24:21.431Z,14.50
2018-04-02T20:26:49.687Z,14.50
2018-04-02T20:29:17.972Z,14.40
2018-04-02T20:31:46.238Z,14.40
2018-04-02T20:34:14.518Z,14.40
2018-04-02T20:36:42.773Z,14.30
2018-04-02T20:39:11.078Z,14.30
2018-04-02T20:41:39.468Z,14.20
2018-04-02T20:44:08.621Z,14.20
2018-04-02T20:46:36.893Z,14.30
2018-04-02T20:49:05.132Z,14.30
2018-04-02T20:51:33.422Z,14.30
2018-04-02T20:54:01.701Z,14.30
2018-04-02T20:56:29.968Z,14.30
2018-04-02T20:58:58.215Z,14.30
2018-04-02T21:01:27.331Z,14.30
2018-04-02T21:03:55.592Z,14.20
2018-04-02T21:06:24.924Z,14.20
2018-04-02T21:08:53.180Z,14.20
2018-04-02T21:11:21.480Z,14.20
2018-04-02T21:13:49.702Z,14.10
2018-04-02T21:16:17.980Z,14.10
2018-04-02T21:18:46.238Z,14.00
2018-04-02T21:21:14.488Z,13.90
2018-04-02T21:23:42.772Z,13.90
2018-04-02T21:26:11.817Z,13.90
2018-04-02T21:28:40.081Z,13.90
2018-04-02T21:31:08.354Z,13.90
2018-04-02T21:33:36.612Z,13.90
2018-04-02T21:36:04.859Z,13.90
2018-04-02T21:38:33.140Z,13.90
2018-04-02T21:41:02.168Z,13.90
2018-04-02T21:43:30.490Z,13.90
2018-04-02T21:45:58.736Z,13.90
2018-04-02T21:48:27.016Z,14.00
2018-04-02T21:50:55.295Z,14.00
2018-04-02T21:53:23.599Z,14.00
2018-04-02T21:55:51.868Z,14.00
2018-04-02T21:58:21.273Z,13.90
2018-04-02T22:00:49.529Z,13.90
2018-04-02T22:03:17.830Z,13.90
2018-04-02T22:05:46.092Z,13.80
2018-04-02T22:08:14.386Z,13.80
2018-04-02T22:10:42.643Z,13.70
2018-04-02T22:13:10.905Z,13.80
2018-04-02T22:15:39.236Z,13.80
2018-04-02T22:18:08.279Z,13.80
2018-04-02T22:20:36.516Z,13.70
2018-04-02T22:23:04.793Z,13.70
2018-04-02T22:25:33.043Z,13.80
2018-04-02T22:28:02.081Z,13.70
2018-04-02T22:30:30.360Z,13.70
2018-04-02T22:32:58.640Z,13.60
2018-04-02T22:35:26.924Z,13.60
2018-04-02T22:37:55.196Z,13.60
2018-04-02T22:40:23.471Z,13.50
2018-04-02T22:42:51.720Z,13.50
2018-04-02T22:45:19.993Z,13.40
2018-04-02T22:47:48.254Z,13.40
2018-04-02T22:50:16.519Z,13.40
2018-04-02T22:52:45.540Z,13.20
2018-04-02T22:55:13.781Z,13.20
2018-04-02T22:57:42.056Z,13.20
2018-04-02T23:00:10.310Z,13.20
2018-04-02T23:02:38.600Z,13.20
2018-04-02T23:05:06.862Z,13.20
2018-04-02T23:07:35.133Z,13.20
2018-04-02T23:10:03.392Z,13.30
2018-04-02T23:12:31.651Z,13.30
2018-04-02T23:14:59.901Z,13.30
2018-04-02T23:17:28.921Z,13.30
2018-04-02T23:19:57.213Z,13.30
2018-04-02T23:22:37.272Z,13.30
2018-04-02T23:25:05.539Z,13.30
2018-04-02T23:27:33.802Z,13.30
2018-04-02T23:30:02.079Z,13.30
2018-04-02T23:32:30.393Z,13.20
2018-04-02T23:34:58.631Z,13.20
2018-04-02T23:37:27.804Z,13.20
2018-04-02T23:39:56.854Z,13.20
2018-04-02T23:42:25.120Z,13.20
2018-04-02T23:44:54.130Z,13.10
2018-04-02T23:47:22.398Z,13.20
2018-04-02T23:49:50.662Z,13.20
2018-04-02T23:52:18.909Z,13.10
2018-04-02T23:54:47.184Z,13.10
2018-04-02T23:57:15.441Z,13.10
2018-04-02T23:59:43.731Z,13.20
